Leon Hermes — A8OK8 — position and weather

sailwx.info

Track history (hours):
 
Tides and Currents Weather Stations Pressure Air Temp Water Temp Dewpoint Dewpoint Depression Visibility Wind Speed Wind Dir Waves Ship Positions

Leon Hermes

Last reported at 2017-Jun-24 23:36 UTC. Time now 2017-Jun-26 02:07 UTC.
Position N 34°35' E 031°59'.

Length 176 m; draft 6.5 m.

Type: Ship. MMSI: 636013645.

Date/timePositionNaut miles runAvg speedWind from/ knotsBaromVisibWave heightAir tempDewpointWater temp
2017-Jun-24 23:36N 34°35' E 031°59'513.8
2017-Jun-24 23:14N 34°33' E 032°04'313.8
2017-Jun-24 23:00N 34°32' E 032°08'713.6
2017-Jun-24 22:30N 34°30' E 032°16'713.4
2017-Jun-24 22:00N 34°27' E 032°23'713.1
2017-Jun-24 21:30N 34°25' E 032°31'612.8
2017-Jun-24 21:00N 34°24' E 032°38'612.1
2017-Jun-24 20:30N 34°23' E 032°46'612.0
2017-Jun-24 20:00N 34°21' E 032°53'611.9
2017-Jun-24 19:30N 34°20' E 032°60'611.9
2017-Jun-24 18:58N 34°19' E 033°07'611.9
2017-Jun-24 18:30N 34°18' E 033°14'612.0
2017-Jun-24 18:00N 34°16' E 033°21'612.6
2017-Jun-24 17:30N 34°15' E 033°28'713.0
2017-Jun-24 17:00N 34°13' E 033°36'613.0
2017-Jun-24 16:30N 34°12' E 033°43'712.9
2017-Jun-24 15:58N 34°10' E 033°52'612.9
2017-Jun-24 15:30N 34°09' E 033°59'612.8
2017-Jun-24 15:00N 34°08' E 034°06'1312.7
2017-Jun-24 14:00N 34°05' E 034°21'612.8
2017-Jun-24 13:30N 34°04' E 034°29'1112.7
2017-Jun-24 12:39N 34°02' E 034°42'212.7
2017-Jun-24 12:30N 34°01' E 034°44'712.7
2017-Jun-24 11:59N 33°60' E 034°52'612.8
2017-Jun-24 11:30N 33°59' E 034°59'612.8
2017-Jun-24 11:00N 33°58' E 035°07'612.8
2017-Jun-24 10:30N 33°57' E 035°14'  
2017-Jun-19 00:32N 34°02' E 034°31'212.8
2017-Jun-19 00:21N 34°02' E 034°28'612.8
2017-Jun-18 23:53N 34°03' E 034°21'812.8
2017-Jun-18 23:16N 34°04' E 034°12'6713.0
2017-Jun-18 18:07N 34°17' E 032°53'313.3
2017-Jun-18 17:52N 34°17' E 032°49'513.2
2017-Jun-18 17:29N 34°18' E 032°43'1213.0
2017-Jun-18 16:32N 34°20' E 032°28'013.1
2017-Jun-18 16:30N 34°20' E 032°28'45311.9
2017-Jun-17 02:31N 37°19' E 023°54'212.9
2017-Jun-17 02:23N 37°20' E 023°53'512.9
2017-Jun-17 02:00N 37°25' E 023°51'612.9
2017-Jun-17 01:30N 37°31' E 023°48'612.5
2017-Jun-17 01:00N 37°37' E 023°45'612.6
2017-Jun-17 00:30N 37°42' E 023°41'612.7
2017-Jun-17 00:00N 37°48' E 023°37'611.6
2017-Jun-16 23:30N 37°50' E 023°31'612.5
2017-Jun-16 23:00N 37°51' E 023°23'612.4
2017-Jun-16 22:30N 37°52' E 023°15'712.3
2017-Jun-16 21:55N 37°54' E 023°06'  
Track history (hours):
 
Tides and Currents Weather Stations Pressure Air Temp Water Temp Dewpoint Dewpoint Depression Visibility Wind Speed Wind Dir Waves Ship Positions

Leon Hermes

Last reported at 2017-Jun-24 23:36 UTC. Time now 2017-Jun-26 02:07 UTC.
Position N 34°35' E 031°59'.

Length 176 m; draft 6.5 m.

Type: Ship. MMSI: 636013645.

Date/timePositionNaut miles runAvg speedWind from/ knotsBaromVisibWave heightAir tempDewpointWater temp
2017-Jun-24 23:36N 34°35' E 031°59'513.8
2017-Jun-24 23:14N 34°33' E 032°04'313.8
2017-Jun-24 23:00N 34°32' E 032°08'713.6
2017-Jun-24 22:30N 34°30' E 032°16'713.4
2017-Jun-24 22:00N 34°27' E 032°23'713.1
2017-Jun-24 21:30N 34°25' E 032°31'612.8
2017-Jun-24 21:00N 34°24' E 032°38'612.1
2017-Jun-24 20:30N 34°23' E 032°46'612.0
2017-Jun-24 20:00N 34°21' E 032°53'611.9
2017-Jun-24 19:30N 34°20' E 032°60'611.9
2017-Jun-24 18:58N 34°19' E 033°07'611.9
2017-Jun-24 18:30N 34°18' E 033°14'612.0
2017-Jun-24 18:00N 34°16' E 033°21'612.6
2017-Jun-24 17:30N 34°15' E 033°28'713.0
2017-Jun-24 17:00N 34°13' E 033°36'613.0
2017-Jun-24 16:30N 34°12' E 033°43'712.9
2017-Jun-24 15:58N 34°10' E 033°52'612.9
2017-Jun-24 15:30N 34°09' E 033°59'612.8
2017-Jun-24 15:00N 34°08' E 034°06'1312.7
2017-Jun-24 14:00N 34°05' E 034°21'612.8
2017-Jun-24 13:30N 34°04' E 034°29'1112.7
2017-Jun-24 12:39N 34°02' E 034°42'212.7
2017-Jun-24 12:30N 34°01' E 034°44'712.7
2017-Jun-24 11:59N 33°60' E 034°52'612.8
2017-Jun-24 11:30N 33°59' E 034°59'612.8
2017-Jun-24 11:00N 33°58' E 035°07'612.8
2017-Jun-24 10:30N 33°57' E 035°14'  
2017-Jun-19 00:32N 34°02' E 034°31'212.8
2017-Jun-19 00:21N 34°02' E 034°28'612.8
2017-Jun-18 23:53N 34°03' E 034°21'812.8
2017-Jun-18 23:16N 34°04' E 034°12'6713.0
2017-Jun-18 18:07N 34°17' E 032°53'313.3
2017-Jun-18 17:52N 34°17' E 032°49'513.2
2017-Jun-18 17:29N 34°18' E 032°43'1213.0
2017-Jun-18 16:32N 34°20' E 032°28'013.1
2017-Jun-18 16:30N 34°20' E 032°28'45311.9
2017-Jun-17 02:31N 37°19' E 023°54'212.9
2017-Jun-17 02:23N 37°20' E 023°53'512.9
2017-Jun-17 02:00N 37°25' E 023°51'612.9
2017-Jun-17 01:30N 37°31' E 023°48'612.5
2017-Jun-17 01:00N 37°37' E 023°45'612.6
2017-Jun-17 00:30N 37°42' E 023°41'612.7
2017-Jun-17 00:00N 37°48' E 023°37'611.6
2017-Jun-16 23:30N 37°50' E 023°31'612.5
2017-Jun-16 23:00N 37°51' E 023°23'612.4
2017-Jun-16 22:30N 37°52' E 023°15'712.3
2017-Jun-16 21:55N 37°54' E 023°06'  

Dump ship's entire track history